sensor_id;sensor_type;location;lat;lon;timestamp;temperature;humidity
13606;DHT22;6874;52.084;5.090;2023-06-04T00:02:13;16.70;59.70
13606;DHT22;6874;52.084;5.090;2023-06-04T00:04:39;16.60;59.90
13606;DHT22;6874;52.084;5.090;2023-06-04T00:07:05;16.60;59.90
13606;DHT22;6874;52.084;5.090;2023-06-04T00:09:30;16.60;59.80
13606;DHT22;6874;52.084;5.090;2023-06-04T00:11:57;16.50;59.90
13606;DHT22;6874;52.084;5.090;2023-06-04T00:14:23;16.50;59.80
13606;DHT22;6874;52.084;5.090;2023-06-04T00:16:49;16.50;59.90
13606;DHT22;6874;52.084;5.090;2023-06-04T00:19:14;16.50;59.90
13606;DHT22;6874;52.084;5.090;2023-06-04T00:21:42;16.40;60.00
13606;DHT22;6874;52.084;5.090;2023-06-04T00:24:08;16.40;60.20
13606;DHT22;6874;52.084;5.090;2023-06-04T00:26:34;16.40;60.30
13606;DHT22;6874;52.084;5.090;2023-06-04T00:29:00;16.30;60.10
13606;DHT22;6874;52.084;5.090;2023-06-04T00:31:26;16.30;60.20
13606;DHT22;6874;52.084;5.090;2023-06-04T00:33:52;16.30;60.20
13606;DHT22;6874;52.084;5.090;2023-06-04T00:36:17;16.20;60.10
13606;DHT22;6874;52.084;5.090;2023-06-04T00:38:43;16.20;60.20
13606;DHT22;6874;52.084;5.090;2023-06-04T00:41:08;16.20;60.40
13606;DHT22;6874;52.084;5.090;2023-06-04T00:43:34;16.20;60.30
13606;DHT22;6874;52.084;5.090;2023-06-04T00:46:01;16.10;60.40
13606;DHT22;6874;52.084;5.090;2023-06-04T00:48:28;16.10;60.30
13606;DHT22;6874;52.084;5.090;2023-06-04T00:50:56;16.00;60.40
13606;DHT22;6874;52.084;5.090;2023-06-04T00:53:23;16.00;60.40
13606;DHT22;6874;52.084;5.090;2023-06-04T00:55:49;16.00;60.60
13606;DHT22;6874;52.084;5.090;2023-06-04T00:58:15;16.00;60.50
13606;DHT22;6874;52.084;5.090;2023-06-04T01:00:42;15.90;60.60
13606;DHT22;6874;52.084;5.090;2023-06-04T01:03:16;15.90;60.80
13606;DHT22;6874;52.084;5.090;2023-06-04T01:08:50;15.90;60.60
13606;DHT22;6874;52.084;5.090;2023-06-04T01:11:40;15.80;60.80
13606;DHT22;6874;52.084;5.090;2023-06-04T01:14:07;15.80;60.90
13606;DHT22;6874;52.084;5.090;2023-06-04T01:16:47;15.80;60.80
13606;DHT22;6874;52.084;5.090;2023-06-04T01:25:05;15.70;60.90
13606;DHT22;6874;52.084;5.090;2023-06-04T01:27:35;15.60;60.80
13606;DHT22;6874;52.084;5.090;2023-06-04T01:30:01;15.60;60.70
13606;DHT22;6874;52.084;5.090;2023-06-04T01:32:28;15.60;60.70
13606;DHT22;6874;52.084;5.090;2023-06-04T01:34:55;15.60;60.80
13606;DHT22;6874;52.084;5.090;2023-06-04T01:37:21;15.50;60.60
13606;DHT22;6874;52.084;5.090;2023-06-04T01:39:47;15.50;60.70
13606;DHT22;6874;52.084;5.090;2023-06-04T01:42:12;15.50;60.80
13606;DHT22;6874;52.084;5.090;2023-06-04T01:44:38;15.40;60.70
13606;DHT22;6874;52.084;5.090;2023-06-04T01:47:03;15.40;60.60
13606;DHT22;6874;52.084;5.090;2023-06-04T01:49:29;15.40;60.90
13606;DHT22;6874;52.084;5.090;2023-06-04T01:51:54;15.40;60.90
13606;DHT22;6874;52.084;5.090;2023-06-04T01:54:21;15.40;61.00
13606;DHT22;6874;52.084;5.090;2023-06-04T01:56:47;15.30;61.00
13606;DHT22;6874;52.084;5.090;2023-06-04T01:59:14;15.30;61.10
13606;DHT22;6874;52.084;5.090;2023-06-04T02:01:41;15.30;61.00
13606;DHT22;6874;52.084;5.090;2023-06-04T02:04:07;15.30;61.00
13606;DHT22;6874;52.084;5.090;2023-06-04T02:06:32;15.20;60.90
13606;DHT22;6874;52.084;5.090;2023-06-04T02:08:58;15.20;60.90
13606;DHT22;6874;52.084;5.090;2023-06-04T02:11:25;15.10;60.90
13606;DHT22;6874;52.084;5.090;2023-06-04T02:13:51;15.10;61.00
13606;DHT22;6874;52.084;5.090;2023-06-04T02:16:16;15.10;61.00
13606;DHT22;6874;52.084;5.090;2023-06-04T02:18:42;15.00;61.00
13606;DHT22;6874;52.084;5.090;2023-06-04T02:21:07;15.00;61.00
13606;DHT22;6874;52.084;5.090;2023-06-04T02:23:33;15.00;61.10
13606;DHT22;6874;52.084;5.090;2023-06-04T02:25:59;15.00;61.20
13606;DHT22;6874;52.084;5.090;2023-06-04T02:28:24;14.90;61.10
13606;DHT22;6874;52.084;5.090;2023-06-04T02:30:50;14.90;61.20
13606;DHT22;6874;52.084;5.090;2023-06-04T02:33:16;14.90;61.20
13606;DHT22;6874;52.084;5.090;2023-06-04T02:35:41;14.80;61.20
13606;DHT22;6874;52.084;5.090;2023-06-04T02:38:07;14.80;61.10
13606;DHT22;6874;52.084;5.090;2023-06-04T02:40:33;14.80;61.20
13606;DHT22;6874;52.084;5.090;2023-06-04T02:42:58;14.80;61.30
13606;DHT22;6874;52.084;5.090;2023-06-04T02:45:24;14.70;61.40
13606;DHT22;6874;52.084;5.090;2023-06-04T02:47:50;14.70;61.40
13606;DHT22;6874;52.084;5.090;2023-06-04T02:50:16;14.70;61.50
13606;DHT22;6874;52.084;5.090;2023-06-04T02:52:41;14.70;61.50
13606;DHT22;6874;52.084;5.090;2023-06-04T02:55:08;14.60;61.30
13606;DHT22;6874;52.084;5.090;2023-06-04T02:57:34;14.60;61.40
13606;DHT22;6874;52.084;5.090;2023-06-04T03:00:01;14.60;61.50
13606;DHT22;6874;52.084;5.090;2023-06-04T03:02:27;14.50;61.40
13606;DHT22;6874;52.084;5.090;2023-06-04T03:04:53;14.50;61.40
13606;DHT22;6874;52.084;5.090;2023-06-04T03:07:20;14.50;61.60
13606;DHT22;6874;52.084;5.090;2023-06-04T03:09:48;14.40;61.30
13606;DHT22;6874;52.084;5.090;2023-06-04T03:12:14;14.40;61.50
13606;DHT22;6874;52.084;5.090;2023-06-04T03:14:40;14.40;61.40
13606;DHT22;6874;52.084;5.090;2023-06-04T03:17:05;14.40;61.60
13606;DHT22;6874;52.084;5.090;2023-06-04T03:19:41;14.30;61.60
13606;DHT22;6874;52.084;5.090;2023-06-04T03:22:07;14.30;61.70
13606;DHT22;6874;52.084;5.090;2023-06-04T03:24:40;14.30;61.60
13606;DHT22;6874;52.084;5.090;2023-06-04T03:27:08;14.30;61.70
13606;DHT22;6874;52.084;5.090;2023-06-04T03:29:34;14.30;61.70
13606;DHT22;6874;52.084;5.090;2023-06-04T03:32:00;14.20;61.60
13606;DHT22;6874;52.084;5.090;2023-06-04T03:34:27;14.20;61.80
13606;DHT22;6874;52.084;5.090;2023-06-04T03:36:53;14.20;61.70
13606;DHT22;6874;52.084;5.090;2023-06-04T03:39:19;14.10;61.70
13606;DHT22;6874;52.084;5.090;2023-06-04T03:41:45;14.10;61.90
13606;DHT22;6874;52.084;5.090;2023-06-04T03:44:13;14.10;61.90
13606;DHT22;6874;52.084;5.090;2023-06-04T03:46:39;14.10;61.90
13606;DHT22;6874;52.084;5.090;2023-06-04T03:49:05;14.00;61.90
13606;DHT22;6874;52.084;5.090;2023-06-04T03:51:30;14.00;61.90
13606;DHT22;6874;52.084;5.090;2023-06-04T03:53:58;14.00;62.00
13606;DHT22;6874;52.084;5.090;2023-06-04T03:56:24;13.90;62.00
13606;DHT22;6874;52.084;5.090;2023-06-04T03:58:52;13.90;62.10
13606;DHT22;6874;52.084;5.090;2023-06-04T04:01:18;13.90;62.00
13606;DHT22;6874;52.084;5.090;2023-06-04T04:03:43;13.90;62.30
13606;DHT22;6874;52.084;5.090;2023-06-04T04:06:13;13.80;62.00
13606;DHT22;6874;52.084;5.090;2023-06-04T04:08:39;13.90;63.10
13606;DHT22;6874;52.084;5.090;2023-06-04T04:11:08;13.80;62.40
13606;DHT22;6874;52.084;5.090;2023-06-04T04:13:33;13.80;62.60
13606;DHT22;6874;52.084;5.090;2023-06-04T04:15:59;13.80;62.60
13606;DHT22;6874;52.084;5.090;2023-06-04T04:18:25;13.70;62.60
13606;DHT22;6874;52.084;5.090;2023-06-04T04:20:51;13.70;62.90
13606;DHT22;6874;52.084;5.090;2023-06-04T04:23:16;13.70;63.00
13606;DHT22;6874;52.084;5.090;2023-06-04T04:25:43;13.70;63.20
13606;DHT22;6874;52.084;5.090;2023-06-04T04:28:09;13.70;63.20
13606;DHT22;6874;52.084;5.090;2023-06-04T04:30:36;13.60;62.90
13606;DHT22;6874;52.084;5.090;2023-06-04T04:33:03;13.60;63.20
13606;DHT22;6874;52.084;5.090;2023-06-04T04:35:30;13.60;63.10
13606;DHT22;6874;52.084;5.090;2023-06-04T04:37:58;13.70;63.50
13606;DHT22;6874;52.084;5.090;2023-06-04T04:40:23;13.60;63.50
13606;DHT22;6874;52.084;5.090;2023-06-04T04:42:49;13.60;63.70
13606;DHT22;6874;52.084;5.090;2023-06-04T04:45:15;13.60;63.60
13606;DHT22;6874;52.084;5.090;2023-06-04T04:47:40;13.60;63.70
13606;DHT22;6874;52.084;5.090;2023-06-04T04:50:06;13.60;63.70
13606;DHT22;6874;52.084;5.090;2023-06-04T04:52:32;13.50;63.50
13606;DHT22;6874;52.084;5.090;2023-06-04T04:54:57;13.50;63.60
13606;DHT22;6874;52.084;5.090;2023-06-04T04:57:26;13.50;64.00
13606;DHT22;6874;52.084;5.090;2023-06-04T04:59:51;13.50;64.20
13606;DHT22;6874;52.084;5.090;2023-06-04T05:02:17;13.50;64.10
13606;DHT22;6874;52.084;5.090;2023-06-04T05:04:43;13.50;64.10
13606;DHT22;6874;52.084;5.090;2023-06-04T05:07:08;13.50;64.30
13606;DHT22;6874;52.084;5.090;2023-06-04T05:09:34;13.50;64.20
13606;DHT22;6874;52.084;5.090;2023-06-04T05:12:00;13.50;64.20
13606;DHT22;6874;52.084;5.090;2023-06-04T05:14:25;13.50;64.30
13606;DHT22;6874;52.084;5.090;2023-06-04T05:16:51;13.50;64.60
13606;DHT22;6874;52.084;5.090;2023-06-04T05:19:16;13.50;64.50
13606;DHT22;6874;52.084;5.090;2023-06-04T05:21:42;13.50;65.50
13606;DHT22;6874;52.084;5.090;2023-06-04T05:24:09;13.50;64.50
13606;DHT22;6874;52.084;5.090;2023-06-04T05:26:35;13.60;65.10
13606;DHT22;6874;52.084;5.090;2023-06-04T05:29:01;13.50;64.80
13606;DHT22;6874;52.084;5.090;2023-06-04T05:31:27;13.50;64.80
13606;DHT22;6874;52.084;5.090;2023-06-04T05:33:52;13.60;64.80
13606;DHT22;6874;52.084;5.090;2023-06-04T05:36:19;13.50;64.80
13606;DHT22;6874;52.084;5.090;2023-06-04T05:38:45;13.60;65.20
13606;DHT22;6874;52.084;5.090;2023-06-04T05:41:10;13.60;65.30
13606;DHT22;6874;52.084;5.090;2023-06-04T05:43:37;13.60;65.50
13606;DHT22;6874;52.084;5.090;2023-06-04T05:46:02;13.60;65.20
13606;DHT22;6874;52.084;5.090;2023-06-04T05:48:28;13.60;65.80
13606;DHT22;6874;52.084;5.090;2023-06-04T05:50:54;13.60;65.90
13606;DHT22;6874;52.084;5.090;2023-06-04T05:53:19;13.60;65.90
13606;DHT22;6874;52.084;5.090;2023-06-04T05:55:45;13.60;65.80
13606;DHT22;6874;52.084;5.090;2023-06-04T05:58:10;13.60;65.80
13606;DHT22;6874;52.084;5.090;2023-06-04T06:00:36;13.70;66.10
13606;DHT22;6874;52.084;5.090;2023-06-04T06:03:01;13.60;66.20
13606;DHT22;6874;52.084;5.090;2023-06-04T06:05:27;13.70;67.00
13606;DHT22;6874;52.084;5.090;2023-06-04T06:07:53;13.70;66.40
13606;DHT22;6874;52.084;5.090;2023-06-04T06:10:18;13.70;67.50
13606;DHT22;6874;52.084;5.090;2023-06-04T06:12:44;13.70;67.30
13606;DHT22;6874;52.084;5.090;2023-06-04T06:15:10;13.70;67.10
13606;DHT22;6874;52.084;5.090;2023-06-04T06:17:38;13.70;67.00
13606;DHT22;6874;52.084;5.090;2023-06-04T06:20:04;13.70;67.30
13606;DHT22;6874;52.084;5.090;2023-06-04T06:22:32;13.80;68.00
13606;DHT22;6874;52.084;5.090;2023-06-04T06:24:58;13.80;67.90
13606;DHT22;6874;52.084;5.090;2023-06-04T06:27:24;13.90;68.10
13606;DHT22;6874;52.084;5.090;2023-06-04T06:29:50;13.90;67.80
13606;DHT22;6874;52.084;5.090;2023-06-04T06:32:16;13.90;68.10
13606;DHT22;6874;52.084;5.090;2023-06-04T06:34:41;13.90;67.60
13606;DHT22;6874;52.084;5.090;2023-06-04T06:37:07;13.90;68.00
13606;DHT22;6874;52.084;5.090;2023-06-04T06:39:33;13.90;67.90
13606;DHT22;6874;52.084;5.090;2023-06-04T06:41:58;13.90;67.80
13606;DHT22;6874;52.084;5.090;2023-06-04T06:44:24;14.00;68.00
13606;DHT22;6874;52.084;5.090;2023-06-04T06:46:50;14.00;68.50
13606;DHT22;6874;52.084;5.090;2023-06-04T06:49:15;14.10;68.80
13606;DHT22;6874;52.084;5.090;2023-06-04T06:51:41;14.10;69.10
13606;DHT22;6874;52.084;5.090;2023-06-04T06:54:09;14.10;69.10
13606;DHT22;6874;52.084;5.090;2023-06-04T06:56:35;14.10;68.80
13606;DHT22;6874;52.084;5.090;2023-06-04T06:59:00;14.20;69.00
13606;DHT22;6874;52.084;5.090;2023-06-04T07:01:26;14.20;69.00
13606;DHT22;6874;52.084;5.090;2023-06-04T07:03:52;14.40;70.20
13606;DHT22;6874;52.084;5.090;2023-06-04T07:06:17;14.40;70.30
13606;DHT22;6874;52.084;5.090;2023-06-04T07:08:43;14.40;70.10
13606;DHT22;6874;52.084;5.090;2023-06-04T07:11:09;14.50;70.50
13606;DHT22;6874;52.084;5.090;2023-06-04T07:13:38;14.50;70.50
13606;DHT22;6874;52.084;5.090;2023-06-04T07:16:06;14.70;70.40
13606;DHT22;6874;52.084;5.090;2023-06-04T07:18:32;14.70;70.20
13606;DHT22;6874;52.084;5.090;2023-06-04T07:20:58;14.80;70.50
13606;DHT22;6874;52.084;5.090;2023-06-04T07:23:24;14.90;70.20
13606;DHT22;6874;52.084;5.090;2023-06-04T07:25:51;15.00;70.40
13606;DHT22;6874;52.084;5.090;2023-06-04T07:28:18;15.10;70.80
13606;DHT22;6874;52.084;5.090;2023-06-04T07:30:47;15.30;71.40
13606;DHT22;6874;52.084;5.090;2023-06-04T07:33:13;15.40;70.90
13606;DHT22;6874;52.084;5.090;2023-06-04T07:35:38;15.70;70.60
13606;DHT22;6874;52.084;5.090;2023-06-04T07:38:04;15.90;70.70
13606;DHT22;6874;52.084;5.090;2023-06-04T07:40:29;16.20;70.20
13606;DHT22;6874;52.084;5.090;2023-06-04T07:42:55;16.50;69.80
13606;DHT22;6874;52.084;5.090;2023-06-04T07:45:21;16.70;68.90
13606;DHT22;6874;52.084;5.090;2023-06-04T07:47:46;16.90;68.70
13606;DHT22;6874;52.084;5.090;2023-06-04T07:50:12;17.20;68.40
13606;DHT22;6874;52.084;5.090;2023-06-04T07:52:37;17.40;67.50
13606;DHT22;6874;52.084;5.090;2023-06-04T07:55:03;17.60;67.00
13606;DHT22;6874;52.084;5.090;2023-06-04T07:57:30;17.80;66.00
13606;DHT22;6874;52.084;5.090;2023-06-04T07:59:57;18.00;66.00
13606;DHT22;6874;52.084;5.090;2023-06-04T08:02:24;18.20;65.20
13606;DHT22;6874;52.084;5.090;2023-06-04T08:04:50;18.40;65.10
13606;DHT22;6874;52.084;5.090;2023-06-04T08:07:16;18.50;64.40
13606;DHT22;6874;52.084;5.090;2023-06-04T08:09:41;18.70;64.20
13606;DHT22;6874;52.084;5.090;2023-06-04T08:12:09;18.90;64.20
13606;DHT22;6874;52.084;5.090;2023-06-04T08:14:35;19.10;63.70
13606;DHT22;6874;52.084;5.090;2023-06-04T08:17:01;19.30;63.40
13606;DHT22;6874;52.084;5.090;2023-06-04T08:19:26;19.40;63.20
13606;DHT22;6874;52.084;5.090;2023-06-04T08:21:52;19.60;63.60
13606;DHT22;6874;52.084;5.090;2023-06-04T08:24:17;19.70;63.30
13606;DHT22;6874;52.084;5.090;2023-06-04T08:26:43;19.80;62.20
13606;DHT22;6874;52.084;5.090;2023-06-04T08:29:08;20.10;62.60
13606;DHT22;6874;52.084;5.090;2023-06-04T08:31:34;20.20;62.40
13606;DHT22;6874;52.084;5.090;2023-06-04T08:34:00;20.30;62.30
13606;DHT22;6874;52.084;5.090;2023-06-04T08:36:26;20.40;61.90
13606;DHT22;6874;52.084;5.090;2023-06-04T08:38:52;20.50;61.80
13606;DHT22;6874;52.084;5.090;2023-06-04T08:41:27;20.70;61.60
13606;DHT22;6874;52.084;5.090;2023-06-04T08:43:57;20.80;61.20
13606;DHT22;6874;52.084;5.090;2023-06-04T08:46:23;20.90;60.90
13606;DHT22;6874;52.084;5.090;2023-06-04T08:48:49;21.00;60.80
13606;DHT22;6874;52.084;5.090;2023-06-04T08:51:16;21.10;60.60
13606;DHT22;6874;52.084;5.090;2023-06-04T08:53:42;21.20;60.70
13606;DHT22;6874;52.084;5.090;2023-06-04T08:56:08;21.30;60.80
13606;DHT22;6874;52.084;5.090;2023-06-04T08:58:35;21.50;61.00
13606;DHT22;6874;52.084;5.090;2023-06-04T09:01:01;21.50;60.70
13606;DHT22;6874;52.084;5.090;2023-06-04T09:03:28;21.60;60.80
13606;DHT22;6874;52.084;5.090;2023-06-04T09:05:55;21.60;60.60
13606;DHT22;6874;52.084;5.090;2023-06-04T09:08:23;21.80;60.80
13606;DHT22;6874;52.084;5.090;2023-06-04T09:10:50;21.90;59.90
13606;DHT22;6874;52.084;5.090;2023-06-04T09:13:19;22.10;60.10
13606;DHT22;6874;52.084;5.090;2023-06-04T09:15:57;22.10;60.00
13606;DHT22;6874;52.084;5.090;2023-06-04T09:18:25;22.30;59.90
13606;DHT22;6874;52.084;5.090;2023-06-04T09:21:08;22.40;59.50
13606;DHT22;6874;52.084;5.090;2023-06-04T09:23:36;22.50;60.10
13606;DHT22;6874;52.084;5.090;2023-06-04T09:26:09;22.60;59.50
13606;DHT22;6874;52.084;5.090;2023-06-04T09:28:35;22.60;59.40
13606;DHT22;6874;52.084;5.090;2023-06-04T09:31:01;22.70;59.50
13606;DHT22;6874;52.084;5.090;2023-06-04T09:33:28;22.90;58.80
13606;DHT22;6874;52.084;5.090;2023-06-04T09:35:57;23.00;58.70
13606;DHT22;6874;52.084;5.090;2023-06-04T09:38:23;23.10;58.30
13606;DHT22;6874;52.084;5.090;2023-06-04T09:40:57;23.10;58.20
13606;DHT22;6874;52.084;5.090;2023-06-04T09:43:23;23.20;58.10
13606;DHT22;6874;52.084;5.090;2023-06-04T09:45:49;23.30;57.80
13606;DHT22;6874;52.084;5.090;2023-06-04T09:48:21;23.30;58.20
13606;DHT22;6874;52.084;5.090;2023-06-04T09:50:48;23.40;57.80
13606;DHT22;6874;52.084;5.090;2023-06-04T09:53:20;23.50;58.10
13606;DHT22;6874;52.084;5.090;2023-06-04T09:55:58;23.50;57.90
13606;DHT22;6874;52.084;5.090;2023-06-04T09:58:30;23.60;57.10
13606;DHT22;6874;52.084;5.090;2023-06-04T10:00:58;23.60;57.10
13606;DHT22;6874;52.084;5.090;2023-06-04T10:03:24;23.70;57.30
13606;DHT22;6874;52.084;5.090;2023-06-04T10:05:53;23.70;57.30
13606;DHT22;6874;52.084;5.090;2023-06-04T10:08:22;23.80;57.20
13606;DHT22;6874;52.084;5.090;2023-06-04T10:10:50;23.90;57.20
13606;DHT22;6874;52.084;5.090;2023-06-04T10:13:19;23.90;57.10
13606;DHT22;6874;52.084;5.090;2023-06-04T10:15:46;24.00;56.90
13606;DHT22;6874;52.084;5.090;2023-06-04T10:18:13;24.00;56.90
13606;DHT22;6874;52.084;5.090;2023-06-04T10:20:41;24.10;57.00
13606;DHT22;6874;52.084;5.090;2023-06-04T10:23:06;24.20;57.00
13606;DHT22;6874;52.084;5.090;2023-06-04T10:25:35;24.30;57.10
13606;DHT22;6874;52.084;5.090;2023-06-04T10:28:04;24.40;56.80
13606;DHT22;6874;52.084;5.090;2023-06-04T10:30:30;24.50;56.80
13606;DHT22;6874;52.084;5.090;2023-06-04T10:32:57;24.50;56.30
13606;DHT22;6874;52.084;5.090;2023-06-04T10:35:30;24.60;56.60
13606;DHT22;6874;52.084;5.090;2023-06-04T10:38:07;24.70;56.30
13606;DHT22;6874;52.084;5.090;2023-06-04T10:40:33;24.70;55.70
13606;DHT22;6874;52.084;5.090;2023-06-04T10:43:05;24.80;55.50
13606;DHT22;6874;52.084;5.090;2023-06-04T10:45:31;24.90;55.80
13606;DHT22;6874;52.084;5.090;2023-06-04T10:48:04;24.90;54.50
13606;DHT22;6874;52.084;5.090;2023-06-04T10:50:34;25.00;54.70
13606;DHT22;6874;52.084;5.090;2023-06-04T10:53:00;25.10;54.70
13606;DHT22;6874;52.084;5.090;2023-06-04T10:55:29;25.10;55.00
13606;DHT22;6874;52.084;5.090;2023-06-04T10:57:57;25.10;54.70
13606;DHT22;6874;52.084;5.090;2023-06-04T11:00:43;25.10;54.50
13606;DHT22;6874;52.084;5.090;2023-06-04T11:03:12;25.20;53.10
13606;DHT22;6874;52.084;5.090;2023-06-04T11:05:40;25.20;52.90
13606;DHT22;6874;52.084;5.090;2023-06-04T11:08:06;25.20;52.10
13606;DHT22;6874;52.084;5.090;2023-06-04T11:10:37;25.20;53.30
13606;DHT22;6874;52.084;5.090;2023-06-04T11:13:04;25.20;53.10
13606;DHT22;6874;52.084;5.090;2023-06-04T11:15:46;25.20;53.30
13606;DHT22;6874;52.084;5.090;2023-06-04T11:18:21;25.20;52.60
13606;DHT22;6874;52.084;5.090;2023-06-04T11:20:48;25.20;52.40
13606;DHT22;6874;52.084;5.090;2023-06-04T11:23:16;25.20;53.30
13606;DHT22;6874;52.084;5.090;2023-06-04T11:25:42;25.20;53.10
13606;DHT22;6874;52.084;5.090;2023-06-04T11:28:15;25.20;52.50
13606;DHT22;6874;52.084;5.090;2023-06-04T11:30:42;25.20;53.20
13606;DHT22;6874;52.084;5.090;2023-06-04T11:33:07;25.20;53.60
13606;DHT22;6874;52.084;5.090;2023-06-04T11:35:40;25.30;52.70
13606;DHT22;6874;52.084;5.090;2023-06-04T11:38:07;25.30;53.00
13606;DHT22;6874;52.084;5.090;2023-06-04T11:40:32;25.40;53.80
13606;DHT22;6874;52.084;5.090;2023-06-04T11:42:58;25.40;53.20
13606;DHT22;6874;52.084;5.090;2023-06-04T11:45:24;25.40;53.20
13606;DHT22;6874;52.084;5.090;2023-06-04T11:47:55;25.40;53.10
13606;DHT22;6874;52.084;5.090;2023-06-04T11:50:27;25.40;52.40
13606;DHT22;6874;52.084;5.090;2023-06-04T11:52:53;25.40;53.30
13606;DHT22;6874;52.084;5.090;2023-06-04T11:55:19;25.50;53.90
13606;DHT22;6874;52.084;5.090;2023-06-04T11:57:48;25.50;54.00
13606;DHT22;6874;52.084;5.090;2023-06-04T12:00:15;25.50;54.60
13606;DHT22;6874;52.084;5.090;2023-06-04T12:02:55;25.50;54.80
13606;DHT22;6874;52.084;5.090;2023-06-04T12:05:29;25.50;55.10
13606;DHT22;6874;52.084;5.090;2023-06-04T12:08:09;25.50;55.70
13606;DHT22;6874;52.084;5.090;2023-06-04T12:10:42;25.50;55.60
13606;DHT22;6874;52.084;5.090;2023-06-04T12:13:09;25.50;55.10
13606;DHT22;6874;52.084;5.090;2023-06-04T12:15:35;25.50;55.10
13606;DHT22;6874;52.084;5.090;2023-06-04T12:18:01;25.50;55.40
13606;DHT22;6874;52.084;5.090;2023-06-04T12:20:37;25.50;55.90
13606;DHT22;6874;52.084;5.090;2023-06-04T12:23:04;25.40;56.00
13606;DHT22;6874;52.084;5.090;2023-06-04T12:25:31;25.40;56.50
13606;DHT22;6874;52.084;5.090;2023-06-04T12:27:57;25.40;56.60
13606;DHT22;6874;52.084;5.090;2023-06-04T12:30:23;25.30;57.10
13606;DHT22;6874;52.084;5.090;2023-06-04T12:32:49;25.40;57.50
13606;DHT22;6874;52.084;5.090;2023-06-04T12:35:16;25.40;57.30
13606;DHT22;6874;52.084;5.090;2023-06-04T12:37:41;25.40;57.10
13606;DHT22;6874;52.084;5.090;2023-06-04T12:40:07;25.40;57.00
13606;DHT22;6874;52.084;5.090;2023-06-04T12:42:34;25.30;56.70
13606;DHT22;6874;52.084;5.090;2023-06-04T12:44:59;25.30;56.70
13606;DHT22;6874;52.084;5.090;2023-06-04T12:47:25;25.30;56.40
13606;DHT22;6874;52.084;5.090;2023-06-04T12:49:51;25.20;56.60
13606;DHT22;6874;52.084;5.090;2023-06-04T12:52:17;25.20;56.00
13606;DHT22;6874;52.084;5.090;2023-06-04T12:54:43;25.10;56.90
13606;DHT22;6874;52.084;5.090;2023-06-04T12:57:09;25.10;56.80
13606;DHT22;6874;52.084;5.090;2023-06-04T12:59:35;25.10;55.90
13606;DHT22;6874;52.084;5.090;2023-06-04T13:02:00;25.10;56.40
13606;DHT22;6874;52.084;5.090;2023-06-04T13:04:26;25.00;56.40
13606;DHT22;6874;52.084;5.090;2023-06-04T13:06:52;25.00;56.30
13606;DHT22;6874;52.084;5.090;2023-06-04T13:09:20;25.00;56.00
13606;DHT22;6874;52.084;5.090;2023-06-04T13:11:48;24.90;56.40
13606;DHT22;6874;52.084;5.090;2023-06-04T13:14:13;24.80;55.50
13606;DHT22;6874;52.084;5.090;2023-06-04T13:16:39;24.80;56.30
13606;DHT22;6874;52.084;5.090;2023-06-04T13:19:06;24.80;56.50
13606;DHT22;6874;52.084;5.090;2023-06-04T13:21:32;24.80;56.30
13606;DHT22;6874;52.084;5.090;2023-06-04T13:23:58;24.80;56.20
13606;DHT22;6874;52.084;5.090;2023-06-04T13:26:23;24.70;55.50
13606;DHT22;6874;52.084;5.090;2023-06-04T13:28:49;24.80;56.70
13606;DHT22;6874;52.084;5.090;2023-06-04T13:31:14;24.80;57.30
13606;DHT22;6874;52.084;5.090;2023-06-04T13:33:40;24.80;56.40
13606;DHT22;6874;52.084;5.090;2023-06-04T13:36:07;24.80;56.40
13606;DHT22;6874;52.084;5.090;2023-06-04T13:38:33;24.80;56.70
13606;DHT22;6874;52.084;5.090;2023-06-04T13:40:59;24.80;55.60
13606;DHT22;6874;52.084;5.090;2023-06-04T13:43:24;24.80;55.00
13606;DHT22;6874;52.084;5.090;2023-06-04T13:45:50;24.70;54.20
13606;DHT22;6874;52.084;5.090;2023-06-04T13:48:16;24.70;53.60
13606;DHT22;6874;52.084;5.090;2023-06-04T13:50:42;24.60;53.80
13606;DHT22;6874;52.084;5.090;2023-06-04T13:53:08;24.60;53.50
13606;DHT22;6874;52.084;5.090;2023-06-04T13:55:34;24.50;54.10
13606;DHT22;6874;52.084;5.090;2023-06-04T13:58:00;24.50;53.20
13606;DHT22;6874;52.084;5.090;2023-06-04T14:00:26;24.50;53.40
13606;DHT22;6874;52.084;5.090;2023-06-04T14:02:52;24.40;53.80
13606;DHT22;6874;52.084;5.090;2023-06-04T14:05:20;24.40;53.80
13606;DHT22;6874;52.084;5.090;2023-06-04T14:07:45;24.40;54.80
13606;DHT22;6874;52.084;5.090;2023-06-04T14:10:11;24.40;53.60
13606;DHT22;6874;52.084;5.090;2023-06-04T14:12:37;24.50;54.80
13606;DHT22;6874;52.084;5.090;2023-06-04T14:15:05;24.40;55.10
13606;DHT22;6874;52.084;5.090;2023-06-04T14:17:32;24.50;55.70
13606;DHT22;6874;52.084;5.090;2023-06-04T14:19:59;24.50;54.10
13606;DHT22;6874;52.084;5.090;2023-06-04T14:22:25;24.50;54.50
13606;DHT22;6874;52.084;5.090;2023-06-04T14:24:50;24.50;54.50
13606;DHT22;6874;52.084;5.090;2023-06-04T14:27:16;24.50;54.30
13606;DHT22;6874;52.084;5.090;2023-06-04T14:29:42;24.50;55.10
13606;DHT22;6874;52.084;5.090;2023-06-04T14:32:07;24.50;54.10
13606;DHT22;6874;52.084;5.090;2023-06-04T14:34:33;24.50;55.40
13606;DHT22;6874;52.084;5.090;2023-06-04T14:36:59;24.60;55.60
13606;DHT22;6874;52.084;5.090;2023-06-04T14:39:26;24.60;56.50
13606;DHT22;6874;52.084;5.090;2023-06-04T14:41:51;24.70;56.10
13606;DHT22;6874;52.084;5.090;2023-06-04T14:44:18;24.70;56.00
13606;DHT22;6874;52.084;5.090;2023-06-04T14:46:43;24.70;55.20
13606;DHT22;6874;52.084;5.090;2023-06-04T14:49:09;24.80;55.30
13606;DHT22;6874;52.084;5.090;2023-06-04T14:51:35;24.80;56.00
13606;DHT22;6874;52.084;5.090;2023-06-04T14:54:01;24.80;55.60
13606;DHT22;6874;52.084;5.090;2023-06-04T14:56:27;24.90;56.30
13606;DHT22;6874;52.084;5.090;2023-06-04T14:58:54;24.90;55.20
13606;DHT22;6874;52.084;5.090;2023-06-04T15:01:19;24.90;55.20
13606;DHT22;6874;52.084;5.090;2023-06-04T15:03:48;24.90;55.20
13606;DHT22;6874;52.084;5.090;2023-06-04T15:06:13;24.90;55.90
13606;DHT22;6874;52.084;5.090;2023-06-04T15:08:39;24.90;56.00
13606;DHT22;6874;52.084;5.090;2023-06-04T15:11:04;24.90;54.60
13606;DHT22;6874;52.084;5.090;2023-06-04T15:13:30;24.90;55.10
13606;DHT22;6874;52.084;5.090;2023-06-04T15:15:55;24.90;55.40
13606;DHT22;6874;52.084;5.090;2023-06-04T15:18:21;24.80;54.50
13606;DHT22;6874;52.084;5.090;2023-06-04T15:20:46;24.80;54.20
13606;DHT22;6874;52.084;5.090;2023-06-04T15:23:12;24.80;54.50
13606;DHT22;6874;52.084;5.090;2023-06-04T15:25:38;24.80;54.50
13606;DHT22;6874;52.084;5.090;2023-06-04T15:28:04;24.70;54.70
13606;DHT22;6874;52.084;5.090;2023-06-04T15:30:30;24.70;55.00
13606;DHT22;6874;52.084;5.090;2023-06-04T15:32:56;24.70;55.70
13606;DHT22;6874;52.084;5.090;2023-06-04T15:35:26;24.70;55.70
13606;DHT22;6874;52.084;5.090;2023-06-04T15:37:52;24.70;55.50
13606;DHT22;6874;52.084;5.090;2023-06-04T15:40:17;24.70;55.00
13606;DHT22;6874;52.084;5.090;2023-06-04T15:42:43;24.70;55.20
13606;DHT22;6874;52.084;5.090;2023-06-04T15:45:08;24.70;54.80
13606;DHT22;6874;52.084;5.090;2023-06-04T15:47:34;24.70;54.80
13606;DHT22;6874;52.084;5.090;2023-06-04T15:50:00;24.60;55.40
13606;DHT22;6874;52.084;5.090;2023-06-04T15:52:25;24.60;55.00